createdAt,value
2023-01-13T00:01:27.397Z,12.00
2023-01-13T00:03:55.981Z,13.30
2023-01-13T00:06:27.368Z,9.37
2023-01-13T00:09:49.456Z,18.47
2023-01-13T00:12:18.409Z,10.70
2023-01-13T00:14:46.876Z,11.63
2023-01-13T00:17:15.316Z,10.40
2023-01-13T00:19:44.881Z,11.40
2023-01-13T00:23:04.654Z,12.30
2023-01-13T00:26:33.904Z,9.40
2023-01-13T00:29:06.227Z,11.23
2023-01-13T00:31:35.215Z,11.17
2023-01-13T00:34:59.069Z,10.43
2023-01-13T00:47:34.364Z,16.33
2023-01-13T00:59:19.040Z,11.73
2023-01-13T01:06:44.726Z,18.23
2023-01-13T01:09:15.289Z,18.90
2023-01-13T01:11:43.844Z,13.50
2023-01-13T01:14:14.255Z,13.20
2023-01-13T01:16:44.081Z,13.30
2023-01-13T01:19:39.654Z,14.40
2023-01-13T01:27:08.461Z,14.60
2023-01-13T01:29:36.871Z,16.90
2023-01-13T01:32:08.037Z,15.57
2023-01-13T01:34:36.485Z,16.23
2023-01-13T01:37:04.930Z,12.90
2023-01-13T01:39:34.285Z,13.23
2023-01-13T01:42:20.057Z,16.20
2023-01-13T01:45:39.543Z,15.53
2023-01-13T01:48:09.776Z,19.00
2023-01-13T01:50:38.597Z,14.97
2023-01-13T01:54:23.190Z,14.10
2023-01-13T01:56:51.799Z,11.00
2023-01-13T01:59:21.249Z,13.50
2023-01-13T02:06:49.267Z,13.27
2023-01-13T02:09:18.837Z,14.50
2023-01-13T02:12:37.392Z,15.40
2023-01-13T02:24:30.469Z,13.20
2023-01-13T02:31:33.835Z,11.63
2023-01-13T02:34:09.319Z,11.57
2023-01-13T02:36:41.757Z,10.80
2023-01-13T02:39:15.605Z,10.77
2023-01-13T02:47:11.334Z,9.30
2023-01-13T02:50:07.311Z,11.40
2023-01-13T02:52:39.712Z,8.60
2023-01-13T02:55:10.604Z,9.70
2023-01-13T03:02:16.426Z,12.20
2023-01-13T03:04:56.246Z,8.40
2023-01-13T03:20:29.681Z,10.93
2023-01-13T03:23:02.360Z,11.47
2023-01-13T03:25:33.443Z,11.17
2023-01-13T03:28:06.397Z,9.10
2023-01-13T03:30:37.617Z,9.60
2023-01-13T03:33:11.245Z,11.80
2023-01-13T03:35:43.607Z,9.23
2023-01-13T03:38:18.762Z,7.23
2023-01-13T03:40:49.235Z,8.03
2023-01-13T03:43:40.851Z,7.53
2023-01-13T03:46:13.037Z,7.37
2023-01-13T03:48:45.165Z,10.07
2023-01-13T03:56:16.731Z,8.00
2023-01-13T03:58:46.254Z,10.93
2023-01-13T04:01:42.252Z,8.47
2023-01-13T04:13:03.136Z,16.93
2023-01-13T04:20:53.523Z,29.83
2023-01-13T04:27:52.322Z,27.63
2023-01-13T04:30:22.324Z,26.07
2023-01-13T04:37:50.565Z,22.60
2023-01-13T04:40:19.394Z,19.60
2023-01-13T04:42:47.833Z,22.43
2023-01-13T04:45:17.294Z,23.63
2023-01-13T04:49:00.273Z,19.00
2023-01-13T05:02:03.954Z,21.47
2023-01-13T05:05:29.714Z,20.20
2023-01-13T05:07:58.529Z,16.93
2023-01-13T05:10:27.383Z,17.53
2023-01-13T05:13:43.843Z,15.60
2023-01-13T05:19:49.875Z,22.20
2023-01-13T05:22:36.125Z,25.40
2023-01-13T05:30:12.771Z,22.70
2023-01-13T05:32:44.171Z,19.73
2023-01-13T05:35:45.728Z,19.50
2023-01-13T05:43:21.799Z,23.27
2023-01-13T05:46:21.592Z,19.10
2023-01-13T05:49:42.364Z,22.07
2023-01-13T05:52:12.219Z,15.83
2023-01-13T05:54:41.469Z,20.53
2023-01-13T05:57:09.790Z,18.93
2023-01-13T05:59:39.530Z,21.83
2023-01-13T06:02:10.393Z,19.73
2023-01-13T06:04:41.817Z,18.77
2023-01-13T06:07:38.514Z,20.20
2023-01-13T06:10:11.322Z,20.17
2023-01-13T06:13:53.554Z,21.77
2023-01-13T06:16:26.811Z,21.60
2023-01-13T06:18:55.929Z,22.20
2023-01-13T06:21:24.854Z,20.47
2023-01-13T06:23:55.588Z,20.93
2023-01-13T06:26:26.485Z,22.27
2023-01-13T06:33:36.773Z,19.47
2023-01-13T06:40:33.749Z,20.30
2023-01-13T06:43:16.788Z,20.83
2023-01-13T06:46:36.724Z,17.53
2023-01-13T06:49:05.299Z,20.30
2023-01-13T06:51:40.306Z,22.10
2023-01-13T06:54:09.152Z,20.03
2023-01-13T06:56:39.598Z,20.00
2023-01-13T06:59:08.765Z,16.93
2023-01-13T07:01:37.464Z,17.60
2023-01-13T07:04:08.427Z,21.77
2023-01-13T07:06:36.858Z,17.90
2023-01-13T07:09:06.982Z,15.57
2023-01-13T07:12:04.030Z,18.40
2023-01-13T07:19:04.698Z,15.80
2023-01-13T07:21:35.063Z,20.43
2023-01-13T07:24:04.154Z,17.23
2023-01-13T07:31:06.314Z,14.80
2023-01-13T07:33:36.374Z,18.07
2023-01-13T07:40:35.244Z,17.93
2023-01-13T07:51:54.394Z,17.23
2023-01-13T07:59:26.491Z,12.20
2023-01-13T08:01:56.612Z,13.43
2023-01-13T08:04:25.157Z,12.40
2023-01-13T08:07:04.984Z,24.33
2023-01-13T08:14:57.794Z,13.70
2023-01-13T08:31:31.043Z,14.70
2023-01-13T08:33:59.514Z,13.93
2023-01-13T08:36:28.023Z,16.80
2023-01-13T08:38:56.716Z,16.73
2023-01-13T08:41:39.166Z,14.13
2023-01-13T08:44:09.438Z,11.70
2023-01-13T08:46:39.381Z,14.60
2023-01-13T08:53:18.879Z,19.33
2023-01-13T09:00:21.916Z,11.20
2023-01-13T09:07:20.836Z,13.97
2023-01-13T09:14:46.010Z,15.50
2023-01-13T09:17:14.746Z,15.30
2023-01-13T09:19:43.366Z,12.80
2023-01-13T09:22:12.580Z,10.97
2023-01-13T09:24:43.195Z,14.63
2023-01-13T09:27:12.545Z,10.37
2023-01-13T09:38:42.641Z,17.50
2023-01-13T09:42:06.561Z,16.30
2023-01-13T09:44:45.618Z,19.00
2023-01-13T09:47:19.721Z,15.30
2023-01-13T09:49:48.637Z,25.90
2023-01-13T09:52:20.603Z,13.83
2023-01-13T09:54:52.137Z,15.10
2023-01-13T10:06:34.626Z,10.93
2023-01-13T10:09:03.725Z,15.60
2023-01-13T10:11:52.969Z,15.60
2023-01-13T10:14:24.227Z,10.87
2023-01-13T10:17:03.134Z,17.43
2023-01-13T10:19:36.124Z,16.43
2023-01-13T10:22:21.040Z,10.97
2023-01-13T10:25:18.323Z,10.93
2023-01-13T10:27:49.420Z,11.27
2023-01-13T10:30:24.262Z,29.83
2023-01-13T10:32:56.360Z,17.77
2023-01-13T10:35:53.908Z,19.33
2023-01-13T10:38:28.099Z,21.50
2023-01-13T10:40:58.592Z,16.60
2023-01-13T10:43:28.438Z,21.03
2023-01-13T10:46:02.625Z,23.60
2023-01-13T10:49:29.479Z,15.30
2023-01-13T10:51:58.164Z,16.20
2023-01-13T10:54:28.222Z,17.83
2023-01-13T10:57:21.533Z,15.10
2023-01-13T10:59:51.049Z,16.20
2023-01-13T11:02:26.930Z,17.30
2023-01-13T11:09:20.629Z,14.17
2023-01-13T11:11:55.610Z,19.97
2023-01-13T11:14:40.698Z,23.87
2023-01-13T11:17:21.430Z,15.60
2023-01-13T11:20:01.866Z,15.83
2023-01-13T11:22:36.667Z,17.73
2023-01-13T11:25:08.347Z,21.53
2023-01-13T11:31:31.733Z,15.63
2023-01-13T11:34:04.537Z,18.07
2023-01-13T11:36:35.374Z,15.07
2023-01-13T11:39:15.559Z,20.93
2023-01-13T11:41:48.509Z,15.13
2023-01-13T11:44:24.263Z,12.47
2023-01-13T11:46:55.650Z,15.57
2023-01-13T11:49:30.923Z,16.50
2023-01-13T11:52:05.376Z,15.30
2023-01-13T11:54:46.032Z,14.47
2023-01-13T11:58:07.733Z,12.10
2023-01-13T12:00:58.433Z,13.83
2023-01-13T12:03:32.648Z,10.70
2023-01-13T12:06:13.262Z,14.70
2023-01-13T12:09:17.994Z,14.70
2023-01-13T12:12:16.775Z,11.43
2023-01-13T12:14:59.697Z,15.20
2023-01-13T12:17:34.697Z,16.10
2023-01-13T12:20:16.326Z,11.40
2023-01-13T12:22:46.947Z,14.73
2023-01-13T12:25:21.083Z,11.93
2023-01-13T12:27:53.116Z,12.27
2023-01-13T12:30:27.174Z,19.00
2023-01-13T12:33:02.229Z,18.30
2023-01-13T12:35:41.559Z,17.87
2023-01-13T12:38:14.987Z,14.77
2023-01-13T12:40:51.691Z,17.23
2023-01-13T12:43:39.359Z,13.60
2023-01-13T12:46:53.458Z,21.57
2023-01-13T12:49:27.141Z,17.57
2023-01-13T12:52:13.875Z,19.57
2023-01-13T12:55:25.228Z,14.50
2023-01-13T12:58:15.792Z,13.43
2023-01-13T13:01:00.528Z,13.87
2023-01-13T13:03:34.408Z,15.50
2023-01-13T13:06:09.621Z,13.23
2023-01-13T13:08:45.779Z,17.10
2023-01-13T13:11:45.425Z,20.07
2023-01-13T13:14:15.118Z,15.63
2023-01-13T13:16:53.200Z,16.30
2023-01-13T13:19:45.243Z,12.93
2023-01-13T13:22:42.648Z,13.10
2023-01-13T13:25:26.952Z,14.30
2023-01-13T13:28:03.080Z,18.80
2023-01-13T13:30:36.389Z,21.70
2023-01-13T13:33:16.868Z,12.20
2023-01-13T13:36:04.884Z,17.43
2023-01-13T13:39:20.419Z,19.83
2023-01-13T13:42:10.101Z,15.60
2023-01-13T13:44:58.610Z,11.80
2023-01-13T13:47:27.093Z,13.67
2023-01-13T13:49:56.523Z,11.33
2023-01-13T13:52:29.981Z,9.00
2023-01-13T13:55:00.439Z,14.90
2023-01-13T13:57:34.775Z,11.80
2023-01-13T14:00:08.870Z,16.23
2023-01-13T14:02:40.598Z,14.80
2023-01-13T14:05:23.735Z,10.50
2023-01-13T14:07:57.924Z,9.47
2023-01-13T14:11:02.934Z,14.07
2023-01-13T14:13:33.743Z,11.20
2023-01-13T14:16:05.765Z,10.43
2023-01-13T14:19:15.397Z,10.83
2023-01-13T14:21:54.941Z,9.70
2023-01-13T14:24:27.735Z,12.07
2023-01-13T14:27:16.984Z,15.00
2023-01-13T14:29:49.666Z,12.30
2023-01-13T14:32:21.371Z,14.90
2023-01-13T14:34:50.462Z,11.23
2023-01-13T14:37:46.195Z,10.40
2023-01-13T14:40:47.401Z,14.07
2023-01-13T14:43:19.293Z,12.43
2023-01-13T14:46:04.098Z,8.33
2023-01-13T14:48:37.719Z,14.67
2023-01-13T14:51:09.837Z,11.57
2023-01-13T14:53:54.032Z,11.13
2023-01-13T15:00:46.837Z,10.60
2023-01-13T15:03:17.865Z,11.83
2023-01-13T15:05:50.896Z,8.07
2023-01-13T15:08:44.482Z,11.33
2023-01-13T15:11:24.823Z,13.80
2023-01-13T15:13:59.528Z,12.90
2023-01-13T15:16:33.881Z,12.50
2023-01-13T15:19:04.876Z,12.43
2023-01-13T15:21:33.257Z,9.67
2023-01-13T15:24:01.549Z,15.50
2023-01-13T15:26:33.804Z,9.30
2023-01-13T15:29:02.111Z,9.93
2023-01-13T15:31:34.629Z,11.40
2023-01-13T15:34:04.928Z,19.40
2023-01-13T15:36:37.660Z,10.80
2023-01-13T15:39:06.335Z,11.40
2023-01-13T15:41:48.911Z,11.37
2023-01-13T15:44:35.109Z,10.53
2023-01-13T15:47:04.865Z,10.37
2023-01-13T15:49:38.044Z,18.13
2023-01-13T15:52:21.466Z,13.30
2023-01-13T15:54:49.892Z,15.33
2023-01-13T15:57:25.776Z,14.50
2023-01-13T15:59:58.138Z,14.20
2023-01-13T16:02:27.795Z,14.43
2023-01-13T16:04:57.671Z,20.33
2023-01-13T16:07:27.667Z,14.43
2023-01-13T16:09:56.631Z,15.77
2023-01-13T16:12:24.910Z,15.60
2023-01-13T16:14:55.091Z,15.00
2023-01-13T16:17:27.599Z,15.97
2023-01-13T16:19:58.297Z,16.70
2023-01-13T16:22:28.583Z,14.13
2023-01-13T16:25:02.621Z,13.60
2023-01-13T16:27:31.163Z,24.77
2023-01-13T16:29:59.445Z,28.07
2023-01-13T16:32:27.949Z,16.03
2023-01-13T16:34:59.720Z,13.20
2023-01-13T16:37:29.839Z,15.27
2023-01-13T16:40:01.440Z,17.13
2023-01-13T16:42:29.924Z,20.53
2023-01-13T16:45:00.940Z,14.90
2023-01-13T16:47:30.542Z,19.83
2023-01-13T16:50:02.396Z,16.97
2023-01-13T16:52:31.248Z,15.03
2023-01-13T16:55:01.226Z,22.07
2023-01-13T16:57:30.047Z,16.00
2023-01-13T17:00:02.516Z,17.90
2023-01-13T17:02:34.485Z,17.20
2023-01-13T17:05:05.312Z,20.97
2023-01-13T17:07:35.926Z,16.37
2023-01-13T17:10:11.134Z,14.60
2023-01-13T17:12:40.290Z,19.30
2023-01-13T17:15:12.577Z,14.73
2023-01-13T17:17:43.339Z,17.93
2023-01-13T17:20:18.692Z,13.17
2023-01-13T17:22:52.109Z,17.73
2023-01-13T17:25:28.002Z,14.10
2023-01-13T17:27:56.769Z,19.80
2023-01-13T17:30:26.391Z,16.83
2023-01-13T17:32:56.117Z,21.63
2023-01-13T17:35:26.848Z,24.43
2023-01-13T17:37:56.342Z,22.10
2023-01-13T17:40:32.363Z,16.97
2023-01-13T17:43:02.440Z,25.47
2023-01-13T17:45:31.387Z,28.90
2023-01-13T17:48:00.309Z,27.40
2023-01-13T17:50:32.644Z,20.47
2023-01-13T17:53:01.983Z,24.57
2023-01-13T17:55:33.036Z,22.93
2023-01-13T17:58:01.910Z,28.00
2023-01-13T18:00:32.039Z,28.20
2023-01-13T18:03:00.914Z,23.13
2023-01-13T18:05:34.179Z,25.00
2023-01-13T18:08:03.399Z,21.63
2023-01-13T18:10:32.882Z,23.60
2023-01-13T18:13:04.334Z,20.37
2023-01-13T18:15:33.316Z,22.87
2023-01-13T18:18:05.398Z,23.83
2023-01-13T18:24:55.649Z,27.77
2023-01-13T18:27:28.088Z,26.10
2023-01-13T18:30:48.055Z,23.33
2023-01-13T18:33:19.307Z,17.73
2023-01-13T18:35:50.365Z,21.37
2023-01-13T18:38:21.907Z,29.20
2023-01-13T18:44:25.867Z,22.50
2023-01-13T18:46:56.584Z,21.80
2023-01-13T18:49:25.265Z,21.33
2023-01-13T18:51:55.881Z,20.97
2023-01-13T18:54:25.511Z,23.87
2023-01-13T18:56:55.011Z,18.27
2023-01-13T18:59:26.831Z,20.50
2023-01-13T19:01:56.536Z,18.73
2023-01-13T19:04:26.865Z,17.90
2023-01-13T19:07:01.205Z,16.07
2023-01-13T19:09:31.626Z,24.00
2023-01-13T19:12:05.681Z,24.43
2023-01-13T19:14:44.768Z,29.67
2023-01-13T19:17:17.612Z,18.93
2023-01-13T19:19:48.643Z,20.80
2023-01-13T19:22:22.711Z,19.63
2023-01-13T19:24:54.791Z,21.53
2023-01-13T19:27:29.127Z,26.47
2023-01-13T19:30:00.843Z,20.37
2023-01-13T19:33:22.158Z,21.53
2023-01-13T19:35:55.218Z,20.43
2023-01-13T19:38:31.058Z,27.70
2023-01-13T19:41:02.493Z,22.70
2023-01-13T19:43:50.459Z,21.67
2023-01-13T19:46:20.957Z,17.63
2023-01-13T19:48:50.164Z,11.47
2023-01-13T19:51:22.289Z,20.37
2023-01-13T19:53:53.626Z,16.20
2023-01-13T19:56:22.798Z,14.80
2023-01-13T19:58:54.768Z,17.97
2023-01-13T20:04:39.484Z,17.90
2023-01-13T20:07:09.605Z,16.50
2023-01-13T20:10:13.947Z,16.50
2023-01-13T20:12:44.568Z,22.67
2023-01-13T20:15:15.602Z,18.67
2023-01-13T20:17:44.965Z,17.43
2023-01-13T20:21:30.546Z,17.43
2023-01-13T20:24:00.427Z,16.77
2023-01-13T20:26:30.793Z,19.93
2023-01-13T20:29:00.729Z,18.03
2023-01-13T20:31:30.849Z,17.70
2023-01-13T20:33:59.949Z,17.93
2023-01-13T20:36:35.480Z,21.23
2023-01-13T20:39:08.552Z,15.60
2023-01-13T20:41:56.408Z,47.77
2023-01-13T20:44:27.176Z,25.93
2023-01-13T20:46:57.874Z,16.53
2023-01-13T20:49:28.509Z,17.73
2023-01-13T20:51:58.102Z,13.83
2023-01-13T20:54:29.456Z,17.17
2023-01-13T20:57:02.454Z,16.30
2023-01-13T20:59:34.023Z,18.63
2023-01-13T21:02:03.358Z,15.47
2023-01-13T21:09:12.832Z,15.23
2023-01-13T21:11:59.678Z,14.60
2023-01-13T21:14:47.422Z,17.10
2023-01-13T21:17:40.203Z,18.57
2023-01-13T21:20:10.438Z,21.20
2023-01-13T21:22:45.716Z,17.67
2023-01-13T21:25:15.339Z,19.20
2023-01-13T21:27:45.095Z,24.80
2023-01-13T21:31:03.467Z,22.37
2023-01-13T21:33:34.516Z,22.63
2023-01-13T21:36:05.969Z,20.10
2023-01-13T21:38:35.010Z,21.63
2023-01-13T21:41:06.379Z,18.67
2023-01-13T21:43:54.298Z,20.70
2023-01-13T21:46:57.541Z,15.83
2023-01-13T21:49:27.713Z,18.80
2023-01-13T21:51:56.269Z,26.70
2023-01-13T21:54:24.712Z,17.07
2023-01-13T21:56:53.188Z,23.07
2023-01-13T21:59:21.513Z,21.30
2023-01-13T22:02:15.639Z,23.83
2023-01-13T22:05:29.116Z,19.00
2023-01-13T22:11:54.403Z,22.70
2023-01-13T22:14:25.189Z,23.37
2023-01-13T22:16:54.272Z,22.90
2023-01-13T22:19:26.544Z,24.43
2023-01-13T22:21:56.541Z,20.43
2023-01-13T22:24:25.672Z,24.70
2023-01-13T22:26:54.991Z,25.20
2023-01-13T22:29:23.419Z,21.20
2023-01-13T22:31:52.298Z,24.00
2023-01-13T22:34:21.166Z,29.23
2023-01-13T22:36:49.660Z,23.20
2023-01-13T22:43:53.030Z,30.47
2023-01-13T22:46:23.730Z,25.17
2023-01-13T22:48:53.907Z,20.50
2023-01-13T22:51:22.979Z,19.93
2023-01-13T22:53:51.467Z,19.40
2023-01-13T22:56:24.464Z,19.33
2023-01-13T22:58:56.484Z,17.90
2023-01-13T23:01:26.744Z,16.50
2023-01-13T23:03:59.381Z,18.77
2023-01-13T23:06:30.877Z,19.80
2023-01-13T23:08:59.288Z,20.23
2023-01-13T23:11:29.337Z,18.97
2023-01-13T23:14:00.203Z,23.60
2023-01-13T23:16:30.348Z,22.07
2023-01-13T23:18:58.854Z,20.13
2023-01-13T23:21:29.477Z,20.57
2023-01-13T23:23:58.825Z,20.37
2023-01-13T23:26:28.061Z,23.47
2023-01-13T23:29:01.307Z,21.87
2023-01-13T23:31:29.976Z,17.40
2023-01-13T23:33:58.615Z,22.60
2023-01-13T23:36:28.405Z,21.70
2023-01-13T23:38:58.240Z,21.67
2023-01-13T23:41:51.813Z,19.73
2023-01-13T23:44:21.528Z,20.50
2023-01-13T23:46:52.600Z,19.37
2023-01-13T23:53:52.570Z,23.93
2023-01-13T23:56:23.276Z,15.50
2023-01-13T23:58:52.200Z,23.37
